sensor_id;sensor_type;location;lat;lon;timestamp;pressure;altitude;pressure_sealevel;temperature;humidity
63194;BME280;49289;51.670;5.624;2023-01-30T00:01:02;101987.50;;;9.39;66.83
63194;BME280;49289;51.670;5.624;2023-01-30T00:02:49;101976.84;;;9.71;65.18
63194;BME280;49289;51.670;5.624;2023-01-30T00:04:37;101954.91;;;10.06;64.52
63194;BME280;49289;51.670;5.624;2023-01-30T00:06:25;101964.27;;;9.87;64.84
63194;BME280;49289;51.670;5.624;2023-01-30T00:08:14;101960.53;;;10.17;64.32
63194;BME280;49289;51.670;5.624;2023-01-30T00:10:02;101982.20;;;9.55;66.07
63194;BME280;49289;51.670;5.624;2023-01-30T00:11:50;101979.19;;;9.79;65.16
63194;BME280;49289;51.670;5.624;2023-01-30T00:13:38;101949.12;;;9.59;66.34
63194;BME280;49289;51.670;5.624;2023-01-30T00:15:26;101953.28;;;9.70;66.27
63194;BME280;49289;51.670;5.624;2023-01-30T00:17:13;101954.45;;;9.84;65.88
63194;BME280;49289;51.670;5.624;2023-01-30T00:19:00;101757.08;;;9.06;65.19
63194;BME280;49289;51.670;5.624;2023-01-30T00:20:47;101957.58;;;10.09;64.58
63194;BME280;49289;51.670;5.624;2023-01-30T00:22:34;101968.05;;;9.63;66.91
63194;BME280;49289;51.670;5.624;2023-01-30T00:24:21;101942.77;;;10.01;66.17
63194;BME280;49289;51.670;5.624;2023-01-30T00:26:10;101961.06;;;10.01;65.85
63194;BME280;49289;51.670;5.624;2023-01-30T00:27:59;101943.75;;;9.91;65.99
63194;BME280;49289;51.670;5.624;2023-01-30T00:29:50;101963.16;;;9.85;67.12
63194;BME280;49289;51.670;5.624;2023-01-30T00:31:37;101962.75;;;9.99;66.92
63194;BME280;49289;51.670;5.624;2023-01-30T00:33:25;101943.42;;;10.07;65.97
63194;BME280;49289;51.670;5.624;2023-01-30T00:35:13;101954.39;;;10.12;65.47
63194;BME280;49289;51.670;5.624;2023-01-30T00:37:00;101954.53;;;10.34;65.39
63194;BME280;49289;51.670;5.624;2023-01-30T00:38:47;101922.83;;;9.99;65.72
63194;BME280;49289;51.670;5.624;2023-01-30T00:40:34;101945.45;;;10.09;66.42
63194;BME280;49289;51.670;5.624;2023-01-30T00:42:21;101930.25;;;9.64;67.84
63194;BME280;49289;51.670;5.624;2023-01-30T00:44:09;101941.14;;;9.72;67.65
63194;BME280;49289;51.670;5.624;2023-01-30T00:45:57;101935.50;;;10.10;66.52
63194;BME280;49289;51.670;5.624;2023-01-30T00:47:46;101937.94;;;9.60;67.54
63194;BME280;49289;51.670;5.624;2023-01-30T00:49:35;101936.01;;;10.41;65.98
63194;BME280;49289;51.670;5.624;2023-01-30T00:51:23;101930.30;;;10.24;65.82
63194;BME280;49289;51.670;5.624;2023-01-30T00:53:11;101946.52;;;10.24;65.95
63194;BME280;49289;51.670;5.624;2023-01-30T00:54:58;101945.42;;;10.21;65.98
63194;BME280;49289;51.670;5.624;2023-01-30T00:56:47;101937.14;;;10.22;66.08
63194;BME280;49289;51.670;5.624;2023-01-30T00:58:34;101912.22;;;10.26;65.70
63194;BME280;49289;51.670;5.624;2023-01-30T01:00:22;101926.16;;;9.95;66.62
63194;BME280;49289;51.670;5.624;2023-01-30T01:02:10;101927.05;;;9.94;66.85
63194;BME280;49289;51.670;5.624;2023-01-30T01:03:57;101930.75;;;10.15;66.07
63194;BME280;49289;51.670;5.624;2023-01-30T01:05:45;101937.34;;;10.32;65.82
63194;BME280;49289;51.670;5.624;2023-01-30T01:07:33;101937.96;;;10.33;66.15
63194;BME280;49289;51.670;5.624;2023-01-30T01:09:22;101927.75;;;10.53;65.00
63194;BME280;49289;51.670;5.624;2023-01-30T01:11:10;101910.42;;;9.96;66.58
63194;BME280;49289;51.670;5.624;2023-01-30T01:12:58;101900.30;;;10.26;65.74
63194;BME280;49289;51.670;5.624;2023-01-30T01:14:45;101913.22;;;10.56;65.37
63194;BME280;49289;51.670;5.624;2023-01-30T01:16:32;101893.91;;;10.45;65.28
63194;BME280;49289;51.670;5.624;2023-01-30T01:18:19;101897.09;;;10.31;65.83
63194;BME280;49289;51.670;5.624;2023-01-30T01:20:06;101899.45;;;9.85;67.14
63194;BME280;49289;51.670;5.624;2023-01-30T01:21:54;101893.36;;;9.97;67.38
63194;BME280;49289;51.670;5.624;2023-01-30T01:23:41;101883.56;;;10.26;66.13
63194;BME280;49289;51.670;5.624;2023-01-30T01:25:28;101900.53;;;10.67;65.08
63194;BME280;49289;51.670;5.624;2023-01-30T01:27:16;101873.30;;;10.34;65.73
63194;BME280;49289;51.670;5.624;2023-01-30T01:29:06;101903.11;;;10.06;67.57
63194;BME280;49289;51.670;5.624;2023-01-30T01:30:53;101893.71;;;10.45;66.35
63194;BME280;49289;51.670;5.624;2023-01-30T01:32:43;101900.89;;;10.16;66.54
63194;BME280;49289;51.670;5.624;2023-01-30T01:34:31;101899.98;;;10.21;67.06
63194;BME280;49289;51.670;5.624;2023-01-30T01:36:20;101906.70;;;10.62;66.34
63194;BME280;49289;51.670;5.624;2023-01-30T01:38:07;101883.17;;;10.45;66.08
63194;BME280;49289;51.670;5.624;2023-01-30T01:39:54;101903.64;;;10.56;66.47
63194;BME280;49289;51.670;5.624;2023-01-30T01:43:57;101888.03;;;10.44;67.06
63194;BME280;49289;51.670;5.624;2023-01-30T01:45:30;101877.10;;;10.80;65.97
63194;BME280;49289;51.670;5.624;2023-01-30T01:47:18;101858.78;;;10.37;66.84
63194;BME280;49289;51.670;5.624;2023-01-30T01:49:11;101851.55;;;10.15;67.53
63194;BME280;49289;51.670;5.624;2023-01-30T01:50:56;101847.30;;;10.27;67.05
63194;BME280;49289;51.670;5.624;2023-01-30T01:52:42;101866.20;;;10.57;66.06
63194;BME280;49289;51.670;5.624;2023-01-30T01:54:32;101868.02;;;10.56;66.56
63194;BME280;49289;51.670;5.624;2023-01-30T01:56:18;101863.31;;;10.48;66.61
63194;BME280;49289;51.670;5.624;2023-01-30T01:58:06;101861.27;;;10.90;65.72
63194;BME280;49289;51.670;5.624;2023-01-30T01:59:56;101833.70;;;10.21;67.03
63194;BME280;49289;51.670;5.624;2023-01-30T02:01:42;101849.21;;;10.77;66.38
63194;BME280;49289;51.670;5.624;2023-01-30T02:03:31;101848.96;;;11.43;64.43
63194;BME280;49289;51.670;5.624;2023-01-30T02:05:18;101850.55;;;10.49;67.35
63194;BME280;49289;51.670;5.624;2023-01-30T02:07:05;101849.91;;;10.54;67.07
63194;BME280;49289;51.670;5.624;2023-01-30T02:08:53;101828.60;;;10.65;67.00
63194;BME280;49289;51.670;5.624;2023-01-30T02:10:44;101847.41;;;10.95;66.00
63194;BME280;49289;51.670;5.624;2023-01-30T02:12:29;101825.09;;;10.66;66.72
63194;BME280;49289;51.670;5.624;2023-01-30T02:14:17;101832.38;;;10.92;66.61
63194;BME280;49289;51.670;5.624;2023-01-30T02:16:07;101826.25;;;10.49;67.79
63194;BME280;49289;51.670;5.624;2023-01-30T02:17:54;101807.94;;;10.59;67.43
63194;BME280;49289;51.670;5.624;2023-01-30T02:19:45;101818.69;;;10.72;67.32
63194;BME280;49289;51.670;5.624;2023-01-30T02:22:00;101832.47;;;11.08;66.77
63194;BME280;49289;51.670;5.624;2023-01-30T02:24:08;101830.08;;;10.73;67.14
63194;BME280;49289;51.670;5.624;2023-01-30T02:26:22;101834.18;;;10.70;67.93
63194;BME280;49289;51.670;5.624;2023-01-30T02:28:22;101824.61;;;10.75;67.28
63194;BME280;49289;51.670;5.624;2023-01-30T02:32:17;101813.34;;;11.18;66.18
63194;BME280;49289;51.670;5.624;2023-01-30T02:34:10;101716.27;;;10.31;67.08
63194;BME280;49289;51.670;5.624;2023-01-30T02:35:59;101809.22;;;11.02;67.28
63194;BME280;49289;51.670;5.624;2023-01-30T02:37:59;101810.78;;;10.81;67.38
63194;BME280;49289;51.670;5.624;2023-01-30T02:39:42;101798.17;;;10.55;68.43
63194;BME280;49289;51.670;5.624;2023-01-30T02:41:31;101806.70;;;10.82;67.87
63194;BME280;49289;51.670;5.624;2023-01-30T02:43:21;101825.19;;;10.55;68.75
63194;BME280;49289;51.670;5.624;2023-01-30T02:45:09;101806.38;;;10.43;69.39
63194;BME280;49289;51.670;5.624;2023-01-30T02:46:55;101801.41;;;10.66;68.67
63194;BME280;49289;51.670;5.624;2023-01-30T02:48:43;101798.28;;;10.35;69.99
63194;BME280;49289;51.670;5.624;2023-01-30T02:50:31;101782.69;;;10.83;68.80
63194;BME280;49289;51.670;5.624;2023-01-30T02:52:18;101804.92;;;10.72;68.85
63194;BME280;49289;51.670;5.624;2023-01-30T02:54:05;101803.59;;;10.68;69.00
63194;BME280;49289;51.670;5.624;2023-01-30T02:55:52;101791.83;;;11.00;68.13
63194;BME280;49289;51.670;5.624;2023-01-30T02:57:39;101772.44;;;10.80;68.56
63194;BME280;49289;51.670;5.624;2023-01-30T02:59:27;101792.70;;;10.60;69.27
63194;BME280;49289;51.670;5.624;2023-01-30T03:01:32;101784.88;;;11.04;68.53
63194;BME280;49289;51.670;5.624;2023-01-30T03:03:40;101773.88;;;10.64;69.75
63194;BME280;49289;51.670;5.624;2023-01-30T03:05:35;101779.77;;;10.67;70.00
63194;BME280;49289;51.670;5.624;2023-01-30T03:07:29;101773.24;;;10.93;69.37
63194;BME280;49289;51.670;5.624;2023-01-30T03:09:19;101765.31;;;10.83;69.13
63194;BME280;49289;51.670;5.624;2023-01-30T03:11:06;101776.08;;;11.07;68.94
63194;BME280;49289;51.670;5.624;2023-01-30T03:12:55;101778.27;;;10.49;71.22
63194;BME280;49289;51.670;5.624;2023-01-30T03:14:43;101768.72;;;11.23;69.00
63194;BME280;49289;51.670;5.624;2023-01-30T03:16:29;101777.90;;;10.88;70.03
63194;BME280;49289;51.670;5.624;2023-01-30T03:18:17;101760.38;;;10.77;70.33
63194;BME280;49289;51.670;5.624;2023-01-30T03:20:05;101754.71;;;11.02;69.43
63194;BME280;49289;51.670;5.624;2023-01-30T03:21:52;101774.39;;;11.16;69.28
63194;BME280;49289;51.670;5.624;2023-01-30T03:23:39;101769.91;;;11.17;69.59
63194;BME280;49289;51.670;5.624;2023-01-30T03:25:27;101771.83;;;10.69;70.99
63194;BME280;49289;51.670;5.624;2023-01-30T03:27:16;101768.27;;;10.97;70.25
63194;BME280;49289;51.670;5.624;2023-01-30T03:29:04;101750.03;;;10.77;71.26
63194;BME280;49289;51.670;5.624;2023-01-30T03:30:52;101766.77;;;11.21;69.78
63194;BME280;49289;51.670;5.624;2023-01-30T03:32:40;101752.57;;;11.13;70.12
63194;BME280;49289;51.670;5.624;2023-01-30T03:34:28;101747.74;;;10.97;70.96
63194;BME280;49289;51.670;5.624;2023-01-30T03:36:16;101741.17;;;10.71;71.71
63194;BME280;49289;51.670;5.624;2023-01-30T03:38:03;101741.15;;;10.93;71.19
63194;BME280;49289;51.670;5.624;2023-01-30T03:39:51;101738.06;;;10.55;72.30
63194;BME280;49289;51.670;5.624;2023-01-30T03:41:40;101746.89;;;11.00;71.87
63194;BME280;49289;51.670;5.624;2023-01-30T03:43:28;101730.51;;;10.99;71.65
63194;BME280;49289;51.670;5.624;2023-01-30T03:45:16;101734.68;;;10.55;72.69
63194;BME280;49289;51.670;5.624;2023-01-30T03:47:03;101740.23;;;11.02;71.83
63194;BME280;49289;51.670;5.624;2023-01-30T03:48:50;101745.28;;;10.94;71.73
63194;BME280;49289;51.670;5.624;2023-01-30T03:50:37;101737.19;;;11.36;71.23
63194;BME280;49289;51.670;5.624;2023-01-30T03:52:25;101740.59;;;11.30;71.29
63194;BME280;49289;51.670;5.624;2023-01-30T03:54:14;101728.07;;;10.99;71.78
63194;BME280;49289;51.670;5.624;2023-01-30T03:56:02;101741.22;;;11.15;71.41
63194;BME280;49289;51.670;5.624;2023-01-30T03:57:50;101744.89;;;11.02;71.64
63194;BME280;49289;51.670;5.624;2023-01-30T03:59:38;101750.38;;;10.79;72.79
63194;BME280;49289;51.670;5.624;2023-01-30T04:01:26;101734.26;;;11.04;72.12
63194;BME280;49289;51.670;5.624;2023-01-30T04:03:14;101736.50;;;10.78;72.87
63194;BME280;49289;51.670;5.624;2023-01-30T04:05:02;101753.77;;;11.05;72.24
63194;BME280;49289;51.670;5.624;2023-01-30T04:06:49;101738.80;;;10.98;72.16
63194;BME280;49289;51.670;5.624;2023-01-30T04:08:36;101737.37;;;11.18;71.21
63194;BME280;49289;51.670;5.624;2023-01-30T04:10:23;101751.13;;;10.79;72.77
63194;BME280;49289;51.670;5.624;2023-01-30T04:12:11;101753.62;;;11.00;72.37
63194;BME280;49289;51.670;5.624;2023-01-30T04:13:59;101754.86;;;10.92;72.76
63194;BME280;49289;51.670;5.624;2023-01-30T04:15:47;101737.70;;;10.74;73.33
63194;BME280;49289;51.670;5.624;2023-01-30T04:17:35;101734.06;;;10.93;72.79
63194;BME280;49289;51.670;5.624;2023-01-30T04:19:23;101738.48;;;10.69;72.92
63194;BME280;49289;51.670;5.624;2023-01-30T04:21:11;101756.53;;;11.27;72.41
63194;BME280;49289;51.670;5.624;2023-01-30T04:22:59;101743.85;;;11.15;72.23
63194;BME280;49289;51.670;5.624;2023-01-30T04:24:46;101738.12;;;11.52;71.32
63194;BME280;49289;51.670;5.624;2023-01-30T04:26:22;101733.61;;;11.34;71.95
63194;BME280;49289;51.670;5.624;2023-01-30T04:28:12;101740.61;;;11.14;72.05
63194;BME280;49289;51.670;5.624;2023-01-30T04:29:47;101733.09;;;11.28;71.64
63194;BME280;49289;51.670;5.624;2023-01-30T04:31:35;101722.48;;;10.87;71.91
63194;BME280;49289;51.670;5.624;2023-01-30T04:33:24;101729.80;;;11.08;71.50
63194;BME280;49289;51.670;5.624;2023-01-30T04:35:12;101725.58;;;10.91;72.57
63194;BME280;49289;51.670;5.624;2023-01-30T04:36:59;101743.75;;;10.82;72.92
63194;BME280;49289;51.670;5.624;2023-01-30T04:38:46;101748.66;;;10.78;73.57
63194;BME280;49289;51.670;5.624;2023-01-30T04:40:33;101737.78;;;10.78;72.83
63194;BME280;49289;51.670;5.624;2023-01-30T04:42:20;101734.18;;;10.71;73.58
63194;BME280;49289;51.670;5.624;2023-01-30T04:44:07;101750.03;;;11.22;72.08
63194;BME280;49289;51.670;5.624;2023-01-30T04:45:55;101743.73;;;11.39;71.64
63194;BME280;49289;51.670;5.624;2023-01-30T04:47:43;101731.81;;;10.49;73.60
63194;BME280;49289;51.670;5.624;2023-01-30T04:49:32;101740.86;;;10.88;73.12
63194;BME280;49289;51.670;5.624;2023-01-30T04:51:19;101730.91;;;11.24;71.62
63194;BME280;49289;51.670;5.624;2023-01-30T04:53:06;101736.94;;;11.28;72.02
63194;BME280;49289;51.670;5.624;2023-01-30T04:54:53;101745.02;;;11.07;72.10
63194;BME280;49289;51.670;5.624;2023-01-30T04:56:40;101719.27;;;11.30;72.09
63194;BME280;49289;51.670;5.624;2023-01-30T04:58:27;101739.57;;;11.78;70.24
63194;BME280;49289;51.670;5.624;2023-01-30T05:00:17;101739.39;;;11.41;71.27
63194;BME280;49289;51.670;5.624;2023-01-30T05:02:04;101745.07;;;11.58;71.25
63194;BME280;49289;51.670;5.624;2023-01-30T05:03:53;101757.44;;;11.10;71.90
63194;BME280;49289;51.670;5.624;2023-01-30T05:05:42;101739.53;;;11.52;69.53
63194;BME280;49289;51.670;5.624;2023-01-30T05:07:30;101736.81;;;11.25;71.36
63194;BME280;49289;51.670;5.624;2023-01-30T05:09:18;101750.11;;;11.13;72.01
63194;BME280;49289;51.670;5.624;2023-01-30T05:11:06;101747.41;;;11.46;70.85
63194;BME280;49289;51.670;5.624;2023-01-30T05:12:54;101747.09;;;11.03;71.60
63194;BME280;49289;51.670;5.624;2023-01-30T05:14:42;101754.04;;;11.11;71.86
63194;BME280;49289;51.670;5.624;2023-01-30T05:16:29;101750.33;;;11.51;70.72
63194;BME280;49289;51.670;5.624;2023-01-30T05:18:16;101743.72;;;11.49;70.50
63194;BME280;49289;51.670;5.624;2023-01-30T05:20:05;101740.29;;;10.94;72.62
63194;BME280;49289;51.670;5.624;2023-01-30T05:21:52;101717.98;;;11.35;70.67
63194;BME280;49289;51.670;5.624;2023-01-30T05:23:41;101722.84;;;11.73;69.70
63194;BME280;49289;51.670;5.624;2023-01-30T05:25:29;101729.27;;;10.88;71.73
63194;BME280;49289;51.670;5.624;2023-01-30T05:27:17;101737.27;;;11.31;70.91
63194;BME280;49289;51.670;5.624;2023-01-30T05:29:04;101717.56;;;11.07;70.82
63194;BME280;49289;51.670;5.624;2023-01-30T05:30:52;101722.48;;;11.16;71.30
63194;BME280;49289;51.670;5.624;2023-01-30T05:32:40;101724.04;;;10.76;72.06
63194;BME280;49289;51.670;5.624;2023-01-30T05:34:27;101747.18;;;11.41;70.28
63194;BME280;49289;51.670;5.624;2023-01-30T05:36:15;101725.11;;;10.97;71.34
63194;BME280;49289;51.670;5.624;2023-01-30T05:38:02;101724.84;;;11.11;70.59
63194;BME280;49289;51.670;5.624;2023-01-30T05:39:51;101740.14;;;11.53;69.52
63194;BME280;49289;51.670;5.624;2023-01-30T05:41:39;101729.91;;;11.40;70.28
63194;BME280;49289;51.670;5.624;2023-01-30T05:43:27;101717.73;;;10.93;69.86
63194;BME280;49289;51.670;5.624;2023-01-30T05:45:15;101738.96;;;11.14;70.46
63194;BME280;49289;51.670;5.624;2023-01-30T05:47:03;101719.98;;;11.03;70.39
63194;BME280;49289;51.670;5.624;2023-01-30T05:48:52;101739.81;;;11.48;68.92
63194;BME280;49289;51.670;5.624;2023-01-30T05:50:40;101726.16;;;11.31;69.35
63194;BME280;49289;51.670;5.624;2023-01-30T05:52:28;101759.45;;;11.05;70.08
63194;BME280;49289;51.670;5.624;2023-01-30T05:54:16;101729.44;;;11.06;70.38
63194;BME280;49289;51.670;5.624;2023-01-30T05:56:06;101745.64;;;11.75;68.41
63194;BME280;49289;51.670;5.624;2023-01-30T05:57:53;101759.88;;;11.12;69.49
63194;BME280;49289;51.670;5.624;2023-01-30T05:59:40;101752.64;;;11.41;68.88
63194;BME280;49289;51.670;5.624;2023-01-30T06:01:28;101745.18;;;11.66;68.05
63194;BME280;49289;51.670;5.624;2023-01-30T06:03:14;101744.27;;;11.72;67.81
63194;BME280;49289;51.670;5.624;2023-01-30T06:05:01;101756.20;;;11.42;68.61
63194;BME280;49289;51.670;5.624;2023-01-30T06:06:48;101752.22;;;11.55;68.22
63194;BME280;49289;51.670;5.624;2023-01-30T06:08:35;101758.45;;;11.34;68.76
63194;BME280;49289;51.670;5.624;2023-01-30T06:10:23;101765.86;;;11.41;68.33
63194;BME280;49289;51.670;5.624;2023-01-30T06:12:12;101759.34;;;11.05;68.66
63194;BME280;49289;51.670;5.624;2023-01-30T06:14:00;101746.55;;;11.34;67.42
63194;BME280;49289;51.670;5.624;2023-01-30T06:15:48;101756.14;;;11.35;67.92
63194;BME280;49289;51.670;5.624;2023-01-30T06:17:35;101768.79;;;11.66;67.87
63194;BME280;49289;51.670;5.624;2023-01-30T06:19:22;101778.23;;;11.40;67.98
63194;BME280;49289;51.670;5.624;2023-01-30T06:21:09;101777.98;;;11.54;67.64
63194;BME280;49289;51.670;5.624;2023-01-30T06:22:57;101785.59;;;11.16;68.71
63194;BME280;49289;51.670;5.624;2023-01-30T06:24:45;101776.67;;;11.65;66.85
63194;BME280;49289;51.670;5.624;2023-01-30T06:26:33;101772.61;;;11.19;68.00
63194;BME280;49289;51.670;5.624;2023-01-30T06:28:22;101786.92;;;11.28;67.61
63194;BME280;49289;51.670;5.624;2023-01-30T06:30:10;101792.07;;;11.50;67.47
63194;BME280;49289;51.670;5.624;2023-01-30T06:31:57;101784.56;;;11.94;66.06
63194;BME280;49289;51.670;5.624;2023-01-30T06:33:45;101799.52;;;11.55;66.75
63194;BME280;49289;51.670;5.624;2023-01-30T06:35:33;101778.63;;;11.44;66.30
63194;BME280;49289;51.670;5.624;2023-01-30T06:37:21;101801.12;;;11.18;66.34
63194;BME280;49289;51.670;5.624;2023-01-30T06:39:10;101799.34;;;11.23;65.66
63194;BME280;49289;51.670;5.624;2023-01-30T06:40:58;101794.69;;;10.79;65.66
63194;BME280;49289;51.670;5.624;2023-01-30T06:42:49;101795.87;;;11.38;64.82
63194;BME280;49289;51.670;5.624;2023-01-30T06:44:36;101798.98;;;10.69;65.27
63194;BME280;49289;51.670;5.624;2023-01-30T06:46:23;101789.30;;;10.94;64.08
63194;BME280;49289;51.670;5.624;2023-01-30T06:48:10;101800.41;;;11.08;63.98
63194;BME280;49289;51.670;5.624;2023-01-30T06:49:57;101780.81;;;10.95;63.07
63194;BME280;49289;51.670;5.624;2023-01-30T06:51:44;101784.55;;;10.78;63.68
63194;BME280;49289;51.670;5.624;2023-01-30T06:53:31;101803.85;;;10.75;63.14
63194;BME280;49289;51.670;5.624;2023-01-30T06:55:20;101782.47;;;10.85;62.99
63194;BME280;49289;51.670;5.624;2023-01-30T06:57:08;101783.73;;;11.07;62.44
63194;BME280;49289;51.670;5.624;2023-01-30T06:58:55;101781.72;;;11.16;62.06
63194;BME280;49289;51.670;5.624;2023-01-30T07:00:43;101786.81;;;10.84;62.88
63194;BME280;49289;51.670;5.624;2023-01-30T07:02:30;101799.32;;;11.33;61.85
63194;BME280;49289;51.670;5.624;2023-01-30T07:04:17;101786.85;;;11.37;61.76
63194;BME280;49289;51.670;5.624;2023-01-30T07:06:04;101805.13;;;11.00;62.96
63194;BME280;49289;51.670;5.624;2023-01-30T07:07:51;101806.11;;;11.18;62.10
63194;BME280;49289;51.670;5.624;2023-01-30T07:09:38;101798.91;;;11.39;61.95
63194;BME280;49289;51.670;5.624;2023-01-30T07:11:25;101810.14;;;10.98;63.43
63194;BME280;49289;51.670;5.624;2023-01-30T07:13:12;101792.38;;;10.42;64.26
63194;BME280;49289;51.670;5.624;2023-01-30T07:15:00;101807.35;;;11.13;62.96
63194;BME280;49289;51.670;5.624;2023-01-30T07:16:48;101800.94;;;10.87;63.19
63194;BME280;49289;51.670;5.624;2023-01-30T07:18:36;101814.38;;;10.99;62.44
63194;BME280;49289;51.670;5.624;2023-01-30T07:20:26;101816.50;;;11.03;62.78
63194;BME280;49289;51.670;5.624;2023-01-30T07:22:14;101803.48;;;10.89;62.21
63194;BME280;49289;51.670;5.624;2023-01-30T07:24:02;101820.36;;;10.48;62.89
63194;BME280;49289;51.670;5.624;2023-01-30T07:25:50;101810.61;;;10.58;63.01
63194;BME280;49289;51.670;5.624;2023-01-30T07:27:38;101816.81;;;11.07;62.50
63194;BME280;49289;51.670;5.624;2023-01-30T07:29:25;101799.66;;;10.50;62.59
63194;BME280;49289;51.670;5.624;2023-01-30T07:31:14;101828.04;;;11.08;62.01
63194;BME280;49289;51.670;5.624;2023-01-30T07:33:02;101835.73;;;10.76;61.62
63194;BME280;49289;51.670;5.624;2023-01-30T07:34:49;101836.84;;;11.51;61.01
63194;BME280;49289;51.670;5.624;2023-01-30T07:36:36;101823.24;;;11.62;59.67
63194;BME280;49289;51.670;5.624;2023-01-30T07:38:23;101829.37;;;11.59;59.74
63194;BME280;49289;51.670;5.624;2023-01-30T07:40:13;101831.02;;;11.09;60.93
63194;BME280;49289;51.670;5.624;2023-01-30T07:42:01;101849.59;;;10.85;62.01
63194;BME280;49289;51.670;5.624;2023-01-30T07:43:49;101828.76;;;10.80;62.30
63194;BME280;49289;51.670;5.624;2023-01-30T07:45:36;101840.22;;;11.12;62.05
63194;BME280;49289;51.670;5.624;2023-01-30T07:47:23;101819.15;;;10.92;61.86
63194;BME280;49289;51.670;5.624;2023-01-30T07:49:10;101838.44;;;10.48;63.58
63194;BME280;49289;51.670;5.624;2023-01-30T07:50:59;101833.53;;;10.95;62.64
63194;BME280;49289;51.670;5.624;2023-01-30T07:52:46;101831.55;;;10.44;63.62
63194;BME280;49289;51.670;5.624;2023-01-30T07:54:33;101829.16;;;10.54;63.47
63194;BME280;49289;51.670;5.624;2023-01-30T07:56:22;101841.54;;;10.93;61.78
63194;BME280;49289;51.670;5.624;2023-01-30T07:58:10;101843.47;;;10.80;62.00
63194;BME280;49289;51.670;5.624;2023-01-30T07:59:57;101832.27;;;10.80;62.74
63194;BME280;49289;51.670;5.624;2023-01-30T08:01:44;101847.95;;;11.04;61.12
63194;BME280;49289;51.670;5.624;2023-01-30T08:03:31;101850.62;;;10.67;62.05
63194;BME280;49289;51.670;5.624;2023-01-30T08:05:19;101848.16;;;10.49;62.65
63194;BME280;49289;51.670;5.624;2023-01-30T08:07:07;101842.81;;;10.59;62.43
63194;BME280;49289;51.670;5.624;2023-01-30T08:08:55;101834.06;;;10.61;62.54
63194;BME280;49289;51.670;5.624;2023-01-30T08:10:42;101851.59;;;10.73;61.75
63194;BME280;49289;51.670;5.624;2023-01-30T08:12:29;101836.08;;;10.56;61.85
63194;BME280;49289;51.670;5.624;2023-01-30T08:14:16;101861.70;;;10.53;62.24
63194;BME280;49289;51.670;5.624;2023-01-30T08:16:04;101858.95;;;10.40;61.63
63194;BME280;49289;51.670;5.624;2023-01-30T08:17:57;101859.69;;;10.20;62.10
63194;BME280;49289;51.670;5.624;2023-01-30T08:19:44;101875.55;;;11.04;60.64
63194;BME280;49289;51.670;5.624;2023-01-30T08:21:31;101884.60;;;10.59;60.58
63194;BME280;49289;51.670;5.624;2023-01-30T08:23:19;101883.14;;;10.98;59.46
63194;BME280;49289;51.670;5.624;2023-01-30T08:25:08;101879.81;;;10.93;59.55
63194;BME280;49289;51.670;5.624;2023-01-30T08:26:55;101857.59;;;11.19;58.78
63194;BME280;49289;51.670;5.624;2023-01-30T08:28:42;101874.87;;;11.29;58.69
63194;BME280;49289;51.670;5.624;2023-01-30T08:30:30;101872.66;;;11.18;59.02
63194;BME280;49289;51.670;5.624;2023-01-30T08:32:17;101852.62;;;10.77;58.07
63194;BME280;49289;51.670;5.624;2023-01-30T08:34:05;101874.86;;;10.88;58.42
63194;BME280;49289;51.670;5.624;2023-01-30T08:35:53;101876.17;;;11.02;58.55
63194;BME280;49289;51.670;5.624;2023-01-30T08:37:42;101856.95;;;10.53;58.65
63194;BME280;49289;51.670;5.624;2023-01-30T08:39:28;101876.22;;;11.34;57.70
63194;BME280;49289;51.670;5.624;2023-01-30T08:41:17;101866.78;;;10.77;57.92
63194;BME280;49289;51.670;5.624;2023-01-30T08:43:04;101863.95;;;10.63;58.78
63194;BME280;49289;51.670;5.624;2023-01-30T08:44:51;101888.01;;;11.61;57.02
63194;BME280;49289;51.670;5.624;2023-01-30T08:46:38;101867.78;;;10.64;57.87
63194;BME280;49289;51.670;5.624;2023-01-30T08:48:26;101886.32;;;10.77;58.27
63194;BME280;49289;51.670;5.624;2023-01-30T08:50:15;101885.94;;;10.83;58.34
63194;BME280;49289;51.670;5.624;2023-01-30T08:52:02;101868.08;;;10.79;58.17
63194;BME280;49289;51.670;5.624;2023-01-30T08:53:49;101890.16;;;10.36;58.98
63194;BME280;49289;51.670;5.624;2023-01-30T08:55:36;101881.60;;;10.84;58.00
63194;BME280;49289;51.670;5.624;2023-01-30T08:57:25;101892.48;;;10.97;57.24
63194;BME280;49289;51.670;5.624;2023-01-30T08:59:13;101899.75;;;11.02;57.76
63194;BME280;49289;51.670;5.624;2023-01-30T09:01:03;101882.71;;;10.45;58.82
63194;BME280;49289;51.670;5.624;2023-01-30T09:02:49;101914.02;;;10.91;58.50
63194;BME280;49289;51.670;5.624;2023-01-30T09:05:24;101897.72;;;10.31;58.32
63194;BME280;49289;51.670;5.624;2023-01-30T09:07:11;101897.57;;;11.10;57.35
63194;BME280;49289;51.670;5.624;2023-01-30T09:08:58;101901.00;;;11.61;55.70
63194;BME280;49289;51.670;5.624;2023-01-30T09:10:30;101917.19;;;11.07;57.36
63194;BME280;49289;51.670;5.624;2023-01-30T09:12:18;101923.34;;;11.53;56.45
63194;BME280;49289;51.670;5.624;2023-01-30T09:14:06;101927.34;;;11.49;55.66
63194;BME280;49289;51.670;5.624;2023-01-30T09:15:55;101920.56;;;11.01;56.24
63194;BME280;49289;51.670;5.624;2023-01-30T09:17:43;101927.01;;;11.43;56.46
63194;BME280;49289;51.670;5.624;2023-01-30T09:19:31;101913.12;;;11.03;56.37
63194;BME280;49289;51.670;5.624;2023-01-30T09:21:08;101921.09;;;11.08;56.80
63194;BME280;49289;51.670;5.624;2023-01-30T09:22:56;101901.64;;;10.97;56.88
63194;BME280;49289;51.670;5.624;2023-01-30T09:24:44;101897.91;;;11.30;56.32
63194;BME280;49289;51.670;5.624;2023-01-30T09:26:32;101921.37;;;11.23;56.07
63194;BME280;49289;51.670;5.624;2023-01-30T09:28:19;101925.83;;;11.66;55.50
63194;BME280;49289;51.670;5.624;2023-01-30T09:30:06;101936.47;;;11.45;55.15